Time;durP1;ratioP1;P1;durP2;ratioP2;P2;SDS_P1;SDS_P2;PMS_P1;PMS_P2;Temp;Humidity;BMP_temperature;BMP_pressure;BME280_temperature;BME280_humidity;BME280_pressure;Samples;Min_cycle;Max_cycle;Signal;HPM_P1;HPM_P2
2021/04/13 04:42:28;;;;;;;56.37;37.58;;;;;;;9.16;92.02;100533.13;1756740;79;21150;-48
2021/04/13 04:45:18;;;;;;;60.67;38.35;;;;;;;9.14;91.99;100529.61;1727818;80;21244;-40
2021/04/13 04:47:47;;;;;;;51.83;35.70;;;;;;;9.13;91.91;100526.56;1773555;79;21163;-46
2021/04/13 04:50:20;;;;;;;58.33;36.73;;;;;;;9.13;91.82;100520.03;1770427;79;21638;-48
2021/04/13 04:52:50;;;;;;;56.20;37.13;;;;;;;9.10;91.77;100525.20;1762140;79;21863;-40
2021/04/13 04:55:17;;;;;;;58.78;39.95;;;;;;;9.07;91.76;100519.98;1779739;79;21478;-46
2021/04/13 04:57:45;;;;;;;52.43;37.75;;;;;;;9.06;91.91;100520.84;1778254;79;21171;-40
2021/04/13 05:00:14;;;;;;;63.33;38.78;;;;;;;9.09;91.96;100525.20;1773835;79;21622;-41
2021/04/13 05:02:42;;;;;;;53.52;37.63;;;;;;;9.11;92.09;100520.46;1766317;80;21178;-41
2021/04/13 05:05:11;;;;;;;56.70;37.60;;;;;;;9.16;92.02;100524.39;1761694;79;21333;-40
2021/04/13 05:07:39;;;;;;;54.27;37.13;;;;;;;9.20;92.01;100526.18;1770547;79;21581;-47
2021/04/13 05:10:08;;;;;;;57.83;37.83;;;;;;;9.22;91.78;100527.96;1752851;79;21704;-47
2021/04/13 05:12:36;;;;;;;51.73;36.68;;;;;;;9.22;91.67;100529.27;1768301;78;21149;-47
2021/04/13 05:15:07;;;;;;;53.28;36.05;;;;;;;9.24;91.62;100527.53;1751377;79;21710;-47
2021/04/13 05:17:35;;;;;;;58.28;36.35;;;;;;;9.27;91.47;100524.94;1763416;79;21146;-38
2021/04/13 05:20:05;;;;;;;50.95;35.35;;;;;;;9.29;91.43;100522.36;1765376;79;21217;-40
2021/04/13 05:22:34;;;;;;;57.03;36.58;;;;;;;9.32;91.44;100519.33;1766803;79;21150;-41
2021/04/13 05:25:05;;;;;;;54.25;35.63;;;;;;;9.35;91.10;100512.41;1762669;79;21673;-46
2021/04/13 05:27:46;;;;;;;58.42;37.40;;;;;;;9.37;91.10;100520.67;1734024;79;21512;-41
2021/04/13 05:30:21;;;;;;;54.88;36.85;;;;;;;9.40;91.26;100516.80;1716005;81;21834;-48
2021/04/13 05:32:56;;;;;;;52.75;34.63;;;;;;;9.46;90.99;100519.46;1757668;79;21726;-41
2021/04/13 05:35:25;;;;;;;58.48;38.73;;;;;;;9.47;90.37;100515.11;1716386;80;21167;-49
2021/04/13 05:38:17;;;;;;;66.12;37.98;;;;;;;9.47;90.11;100515.98;1735807;79;21965;-40
2021/04/13 05:45:36;;;;;;;62.98;39.38;;;;;;;9.47;89.75;100519.03;1773407;79;21762;-40
2021/04/13 05:56:54;;;;;;;66.92;42.20;;;;;;;9.62;89.90;100522.17;1692818;82;21186;-40
2021/04/13 05:59:22;;;;;;;65.12;42.38;;;;;;;9.66;89.41;100525.26;1707966;81;21179;-43
2021/04/13 06:01:50;;;;;;;65.80;42.70;;;;;;;9.70;89.06;100525.73;1777772;78;21167;-40
2021/04/13 06:04:21;;;;;;;66.25;42.65;;;;;;;9.72;88.62;100524.87;1756001;79;21166;-47
2021/04/13 06:06:49;;;;;;;73.15;48.48;;;;;;;9.75;88.04;100520.11;1767566;79;21183;-47
2021/04/13 06:09:20;;;;;;;65.42;44.30;;;;;;;9.77;88.22;100524.47;1768968;79;21642;-41
2021/04/13 06:11:49;;;;;;;67.00;44.33;;;;;;;9.83;87.94;100527.12;1771426;79;21616;-40
2021/04/13 06:14:18;;;;;;;64.07;43.52;;;;;;;9.88;87.71;100521.94;1732974;79;21699;-39
2021/04/13 06:25:21;;;;;;;66.20;41.40;;;;;;;10.16;87.00;100524.28;1767452;79;21569;-40
2021/04/13 06:41:28;;;;;;;66.10;40.58;;;;;;;10.47;83.95;100523.14;1752257;79;21156;-40
2021/04/13 06:44:25;;;;;;;67.45;42.83;;;;;;;10.53;83.64;100519.23;1773731;79;21148;-47
2021/04/13 06:47:24;;;;;;;59.53;36.30;;;;;;;10.58;83.06;100529.29;1771684;79;21175;-47
2021/04/13 06:50:03;;;;;;;66.95;41.20;;;;;;;10.58;82.08;100529.29;1770833;79;21148;-46
2021/04/13 06:53:02;;;;;;;67.97;42.55;;;;;;;10.58;82.00;100527.55;1753433;79;21948;-46
2021/04/13 06:55:43;;;;;;;61.13;38.83;;;;;;;10.58;82.23;100531.47;1644547;84;21186;-47
2021/04/13 06:58:49;;;;;;;66.77;40.55;;;;;;;10.62;81.62;100534.55;1605994;84;21356;-46
2021/04/13 07:01:50;;;;;;;67.47;39.65;;;;;;;10.68;81.59;100539.37;1631607;83;22126;-39
2021/04/13 07:04:37;;;;;;;70.72;39.45;;;;;;;10.71;80.43;100537.61;1632264;85;21391;-47
2021/04/13 07:07:16;;;;;;;61.88;36.58;;;;;;;10.75;80.37;100535.89;1643925;85;21180;-40
2021/04/13 07:10:06;;;;;;;69.82;37.80;;;;;;;10.78;79.61;100544.61;1641655;85;21178;-47
2021/04/13 07:12:40;;;;;;;65.50;36.17;;;;;;;10.81;79.67;100541.14;1651687;84;21316;-47
2021/04/13 07:15:41;;;;;;;68.97;37.23;;;;;;;10.83;79.36;100539.39;1645207;86;22089;-40
2021/04/13 07:18:40;;;;;;;66.53;38.53;;;;;;;10.84;78.64;100530.66;1791141;78;24270;-40
2021/04/13 07:25:20;;;;;;;72.25;39.50;;;;;;;10.74;78.99;100533.71;1757259;80;21168;-38
2021/04/13 07:29:12;;;;;;;58.52;35.03;;;;;;;10.77;79.55;100524.55;1758057;80;21147;-39
2021/04/13 07:32:19;;;;;;;67.55;40.45;;;;;;;10.85;79.21;100528.52;1759863;80;21605;-40
2021/04/13 07:34:57;;;;;;;53.28;36.28;;;;;;;10.89;78.72;100530.24;1760333;81;21332;-42
2021/04/13 07:37:34;;;;;;;59.88;36.50;;;;;;;10.95;78.08;100531.56;1760486;81;21632;-40
2021/04/13 07:40:14;;;;;;;54.95;35.68;;;;;;;10.99;77.98;100527.22;1755887;80;21232;-48
2021/04/13 07:42:49;;;;;;;63.17;38.88;;;;;;;11.01;77.91;100534.20;1763470;80;21155;-48
2021/04/13 07:45:34;;;;;;;69.65;39.67;;;;;;;11.04;78.18;100538.14;1761594;80;21723;-40
2021/04/13 07:48:25;;;;;;;57.27;33.80;;;;;;;11.10;78.51;100542.52;1755741;80;21175;-39
2021/04/13 07:51:16;;;;;;;56.85;35.63;;;;;;;11.17;77.74;100541.22;1760477;81;21159;-40
2021/04/13 07:54:24;;;;;;;55.92;32.98;;;;;;;11.24;77.57;100537.30;1766708;81;21147;-40
2021/04/13 07:56:56;;;;;;;61.63;36.00;;;;;;;11.31;76.87;100536.45;1765617;81;21301;-40
2021/04/13 07:59:51;;;;;;;66.43;35.77;;;;;;;11.42;76.47;100535.98;1760563;80;21664;-48
2021/04/13 08:02:20;;;;;;;55.98;33.20;;;;;;;11.53;76.76;100529.01;1756842;80;21686;-48
2021/04/13 08:04:53;;;;;;;52.83;33.02;;;;;;;11.67;76.14;100530.33;1764026;80;21143;-39
2021/04/13 08:07:29;;;;;;;56.73;33.40;;;;;;;11.75;75.82;100529.88;1761921;80;21703;-39
2021/04/13 08:10:28;;;;;;;45.73;31.07;;;;;;;11.86;75.40;100529.45;1767987;80;21665;-39
2021/04/13 08:13:06;;;;;;;45.88;30.15;;;;;;;11.96;73.69;100526.39;1761673;80;21371;-47
2021/04/13 08:15:49;;;;;;;50.33;29.90;;;;;;;11.99;73.94;100525.92;1763527;80;21581;-39
2021/04/13 08:18:40;;;;;;;50.35;29.67;;;;;;;12.01;73.35;100529.88;1744732;81;21140;-41
2021/04/13 08:21:29;;;;;;;50.75;29.87;;;;;;;12.00;73.31;100525.48;1747528;79;21513;-39
2021/04/13 08:24:22;;;;;;;48.00;29.10;;;;;;;11.99;73.74;100528.55;1729166;80;21602;-39
2021/04/13 08:27:29;;;;;;;47.75;28.87;;;;;;;11.95;72.73;100529.89;1712903;82;21321;-40
2021/04/13 08:30:28;;;;;;;52.08;29.02;;;;;;;11.85;72.57;100533.41;1716758;82;21318;-48
2021/04/13 08:33:31;;;;;;;50.92;28.38;;;;;;;11.79;73.17;100525.07;1713471;82;21483;-48
2021/04/13 08:37:15;;;;;;;42.85;28.95;;;;;;;11.78;73.63;100522.02;1713507;82;21219;-39
2021/04/13 08:40:34;;;;;;;44.88;27.35;;;;;;;11.78;73.89;100518.53;1717423;83;21302;-40
2021/04/13 08:43:23;;;;;;;41.30;26.70;;;;;;;11.78;73.44;100519.40;1719298;82;21194;-42
2021/04/13 08:46:18;;;;;;;41.23;26.20;;;;;;;11.77;72.58;100515.03;1733077;79;22953;-47
2021/04/13 08:49:34;;;;;;;47.85;26.02;;;;;;;11.63;72.57;100515.03;1707356;82;21718;-46
2021/04/13 08:52:44;;;;;;;38.23;25.77;;;;;;;11.54;73.22;100515.06;1686520;82;21431;-41
2021/04/13 08:55:30;;;;;;;42.78;26.48;;;;;;;11.48;73.63;100517.69;1710616;82;21164;-48
2021/04/13 08:58:26;;;;;;;41.23;25.08;;;;;;;11.43;73.28;100512.88;1707251;82;21151;-46
2021/04/13 09:01:34;;;;;;;41.70;24.82;;;;;;;11.41;73.63;100514.60;1659824;85;21182;-47
2021/04/13 09:04:33;;;;;;;39.80;22.82;;;;;;;11.39;73.83;100513.30;1656266;84;21410;-42
2021/04/13 09:07:49;;;;;;;36.95;22.73;;;;;;;11.38;73.66;100507.63;1653342;85;21155;-40
2021/04/13 09:11:26;;;;;;;32.50;22.45;;;;;;;11.39;74.04;100504.57;1628438;85;21325;-47
2021/04/13 09:15:20;;;;;;;37.25;21.20;;;;;;;11.39;73.97;100509.81;1557408;90;22034;-39
2021/04/13 09:23:36;;;;;;;36.33;21.27;;;;;;;11.52;73.71;100498.88;1709976;82;21907;-40
2021/04/13 09:27:25;;;;;;;27.70;18.23;;;;;;;11.67;73.64;100497.57;1711606;82;21639;-47
2021/04/13 09:29:57;;;;;;;27.30;17.35;;;;;;;11.84;72.12;100494.96;1709872;82;21317;-40
2021/04/13 09:32:45;;;;;;;21.05;15.35;;;;;;;11.94;71.15;100492.32;1704711;82;22022;-40
2021/04/13 09:35:43;;;;;;;25.52;15.53;;;;;;;12.06;70.73;100486.17;1712339;82;21228;-41
2021/04/13 09:38:30;;;;;;;;;;;;;;;12.21;70.53;100486.53;1709033;82;21638;-40
2021/04/13 09:41:13;;;;;;;23.40;15.43;;;;;;;12.42;70.00;100486.45;1706931;82;20175;-48
2021/04/13 09:44:13;;;;;;;20.77;14.87;;;;;;;12.51;69.11;100484.22;1714183;82;21203;-42
2021/04/13 09:47:10;;;;;;;22.90;15.57;;;;;;;12.56;68.43;100482.89;1709277;82;21190;-40
2021/04/13 09:50:08;;;;;;;23.18;14.35;;;;;;;12.59;68.40;100482.44;1712186;82;21210;-40
2021/04/13 09:53:17;;;;;;;24.30;15.93;;;;;;;12.60;68.10;100484.19;1710554;82;21724;-49
2021/04/13 09:56:47;;;;;;;19.23;14.25;;;;;;;12.60;68.35;100485.49;1710067;82;21301;-41
2021/04/13 09:59:58;;;;;;;22.27;15.88;;;;;;;12.58;67.95;100485.95;1707633;82;21188;-40
2021/04/13 10:04:00;;;;;;;22.58;15.35;;;;;;;12.56;67.92;100492.94;1711573;82;21127;-45
2021/04/13 10:07:39;;;;;;;23.15;14.33;;;;;;;12.61;68.21;100488.98;1710236;82;21189;-47
2021/04/13 10:10:20;;;;;;;30.57;18.95;;;;;;;12.75;68.21;100486.70;1708728;82;21154;-42
2021/04/13 10:26:23;;;;;;;24.12;15.98;;;;;;;13.35;65.69;100475.83;1677529;82;21820;-40
2021/04/13 10:30:30;;;;;;;23.15;14.25;;;;;;;13.45;65.66;100478.81;1679194;83;21632;-41
2021/04/13 10:34:02;;;;;;;21.93;14.83;;;;;;;13.44;65.17;100478.36;1697697;82;21324;-41
2021/04/13 10:37:24;;;;;;;22.52;14.60;;;;;;;13.38;64.99;100484.98;1690968;82;21179;-40
2021/04/13 10:40:48;;;;;;;20.10;14.33;;;;;;;13.33;65.06;100487.21;1698527;82;21232;-50
2021/04/13 10:43:43;;;;;;;21.68;14.45;;;;;;;13.29;65.49;100485.08;1694951;82;21399;-43
2021/04/13 10:47:26;;;;;;;23.25;14.78;;;;;;;13.31;65.94;100484.61;1675580;83;21309;-41
2021/04/13 10:51:05;;;;;;;25.50;14.20;;;;;;;13.35;65.56;100480.21;1672952;82;22150;-48
2021/04/13 10:54:19;;;;;;;21.77;12.82;;;;;;;13.40;63.99;100480.61;1697568;82;21331;-50
2021/04/13 10:57:14;;;;;;;18.17;13.40;;;;;;;13.50;64.27;100483.55;1624060;86;21399;-42
2021/04/13 10:59:56;;;;;;;21.55;13.95;;;;;;;13.69;64.13;100475.52;1617834;86;21720;-41
2021/04/13 11:03:16;;;;;;;23.75;13.20;;;;;;;13.84;63.40;100472.27;1625831;86;21217;-42
2021/04/13 11:06:30;;;;;;;25.43;14.38;;;;;;;13.97;62.15;100468.19;1625732;86;22321;-40
2021/04/13 11:09:45;;;;;;;18.43;13.10;;;;;;;14.25;60.99;100464.34;1624572;86;21718;-40
2021/04/13 11:12:35;;;;;;;23.30;13.15;;;;;;;14.53;59.95;100460.08;1628170;86;21947;-47
2021/04/13 11:15:22;;;;;;;17.10;11.65;;;;;;;14.73;59.39;100463.33;1592795;87;21305;-47
2021/04/13 11:17:59;;;;;;;18.48;12.70;;;;;;;14.82;59.28;100460.54;1631917;85;21753;-47
2021/04/13 11:20:59;;;;;;;17.10;11.75;;;;;;;14.80;59.38;100465.42;1642408;86;21674;-39
2021/04/13 11:23:54;;;;;;;21.10;12.58;;;;;;;14.82;59.54;100455.27;1643459;86;21190;-39
2021/04/13 11:26:58;;;;;;;21.27;12.73;;;;;;;14.84;59.05;100454.83;1640582;86;22204;-54
2021/04/13 11:30:15;;;;;;;16.73;11.65;;;;;;;14.93;58.47;100452.93;1637261;86;21213;-48
2021/04/13 11:33:23;;;;;;;19.70;12.78;;;;;;;15.12;58.92;100455.69;1794208;78;23755;-46
2021/04/13 11:36:20;;;;;;;17.00;11.55;;;;;;;15.12;58.38;100452.61;1769115;79;21494;-49
2021/04/13 11:39:09;;;;;;;14.87;10.40;;;;;;;15.11;57.62;100456.59;1770870;79;21155;-48
2021/04/13 11:41:42;;;;;;;20.45;11.30;;;;;;;15.02;58.29;100448.85;1769176;79;21153;-48
2021/04/13 11:44:24;;;;;;;22.10;11.60;;;;;;;14.95;58.48;100448.50;1776528;79;21147;-43
2021/04/13 11:47:11;;;;;;;25.20;11.45;;;;;;;14.88;58.23;100450.36;1775991;79;21182;-49
2021/04/13 11:49:58;;;;;;;17.77;10.65;;;;;;;14.82;58.25;100446.50;1768498;79;21166;-39
2021/04/13 11:52:37;;;;;;;17.45;11.20;;;;;;;14.87;57.36;100447.31;1770410;79;21305;-39
2021/04/13 11:55:26;;;;;;;19.55;11.33;;;;;;;15.06;57.67;100444.80;1766973;79;21158;-42
2021/04/13 11:58:24;;;;;;;19.05;10.38;;;;;;;15.30;55.65;100440.89;1704694;82;22097;-41
2021/04/13 12:00:54;;;;;;;23.35;12.93;;;;;;;15.53;55.30;100441.80;1683415;82;21211;-48
2021/04/13 12:03:28;;;;;;;16.93;11.40;;;;;;;15.82;55.63;100429.42;1701945;81;21344;-47
2021/04/13 12:06:01;;;;;;;14.83;10.55;;;;;;;16.09;53.75;100439.03;1696243;81;21419;-47
2021/04/13 12:08:41;;;;;;;16.30;11.18;;;;;;;16.26;53.17;100428.98;1699851;81;21162;-47
2021/04/13 12:11:17;;;;;;;17.52;11.28;;;;;;;16.42;52.45;100430.86;1693864;82;21203;-38
2021/04/13 12:13:51;;;;;;;14.98;11.25;;;;;;;16.51;51.19;100422.72;1677416;83;21187;-39
